Time;durP1;ratioP1;P1;durP2;ratioP2;P2;SDS_P1;SDS_P2;PMS_P1;PMS_P2;Temp;Humidity;BMP_temperature;BMP_pressure;BME280_temperature;BME280_humidity;BME280_pressure;Samples;Min_cycle;Max_cycle;Signal;HPM_P1;HPM_P2
2022/05/26 00:02:34;;;;;;;3.07;1.70;;;;;;;10.96;100.00;99585.66;6250444;23;20085;-67
2022/05/26 00:05:19;;;;;;;5.45;1.60;;;;;;;10.97;100.00;99581.25;6251244;23;20258;-61
2022/05/26 00:08:03;;;;;;;3.05;1.88;;;;;;;10.84;100.00;99561.25;6248815;23;20077;-60
2022/05/26 00:10:47;;;;;;;5.82;1.95;;;;;;;11.00;100.00;99582.03;6196456;23;20146;-62
2022/05/26 00:13:32;;;;;;;6.47;2.00;;;;;;;10.95;100.00;99575.97;6249283;23;20031;-61
2022/05/26 00:16:18;;;;;;;6.78;2.10;;;;;;;10.83;100.00;99570.09;6250700;23;20524;-60
2022/05/26 00:19:03;;;;;;;6.22;2.35;;;;;;;10.60;100.00;99540.63;6228063;23;20031;-60
2022/05/26 00:21:49;;;;;;;4.18;2.15;;;;;;;10.88;100.00;99574.38;6240903;23;20359;-61
2022/05/26 00:24:33;;;;;;;5.35;2.20;;;;;;;10.97;100.00;99573.28;6241477;23;20073;-60
2022/05/26 00:27:17;;;;;;;3.55;2.53;;;;;;;10.95;100.00;99546.78;6238437;23;20510;-61
2022/05/26 00:30:03;;;;;;;4.13;2.63;;;;;;;11.20;100.00;99593.03;6217890;23;20119;-61
2022/05/26 00:32:48;;;;;;;9.25;2.70;;;;;;;11.14;100.00;99584.34;6215924;23;20367;-62
2022/05/26 00:35:36;;;;;;;6.60;2.53;;;;;;;11.15;100.00;99580.81;6236698;23;20505;-62
2022/05/26 00:38:20;;;;;;;5.28;2.55;;;;;;;11.20;100.00;99584.22;6170310;23;20057;-65
2022/05/26 00:41:12;;;;;;;6.50;2.70;;;;;;;11.17;100.00;99576.31;6234761;23;20362;-63
2022/05/26 00:43:57;;;;;;;6.72;2.55;;;;;;;10.94;100.00;99574.25;6213208;23;20091;-63
2022/05/26 00:46:48;;;;;;;;;;;;;;;10.88;100.00;99574.38;6235434;23;20024;-61
2022/05/26 00:49:50;;;;;;;7.65;2.90;;;;;;;10.82;100.00;99563.03;6246001;23;20008;-63
2022/05/26 00:53:12;;;;;;;7.07;2.92;;;;;;;10.76;100.00;99563.22;6249872;23;20353;-61
2022/05/26 00:56:17;;;;;;;5.13;2.53;;;;;;;10.54;100.00;99556.66;6248633;23;20055;-61
2022/05/26 00:59:11;;;;;;;8.85;2.97;;;;;;;10.57;100.00;99548.63;6250538;23;20039;-62
2022/05/26 01:01:58;;;;;;;12.07;3.22;;;;;;;10.11;100.00;99517.00;6238595;23;20564;-60
2022/05/26 01:04:49;;;;;;;11.23;2.50;;;;;;;9.91;100.00;99507.72;6237876;23;20082;-62
2022/05/26 01:07:37;;;;;;;6.13;2.50;;;;;;;10.02;100.00;99545.44;6250585;23;20073;-60
2022/05/26 01:10:22;;;;;;;8.43;2.60;;;;;;;10.07;100.00;99544.47;6240277;23;20031;-62
2022/05/26 01:13:06;;;;;;;9.55;2.60;;;;;;;10.04;100.00;99541.84;6240253;23;20027;-60
2022/05/26 01:16:14;;;;;;;7.60;2.97;;;;;;;9.96;100.00;99524.41;6227702;23;20150;-61
2022/05/26 01:18:59;;;;;;;6.32;2.97;;;;;;;9.85;100.00;99543.13;6240411;23;20027;-61
2022/05/26 01:22:02;;;;;;;9.83;3.00;;;;;;;9.87;100.00;99546.66;6239294;23;20073;-68
2022/05/26 01:25:12;;;;;;;8.30;3.30;;;;;;;9.62;100.00;99502.16;6229540;23;20309;-61
2022/05/26 01:28:19;;;;;;;7.53;3.35;;;;;;;9.97;100.00;99542.88;6242275;23;20481;-61
2022/05/26 01:31:44;;;;;;;8.75;3.17;;;;;;;9.99;100.00;99532.25;6120036;23;20438;-61
2022/05/26 01:34:54;;;;;;;6.07;3.13;;;;;;;9.64;100.00;99495.09;6129565;23;20505;-61
2022/05/26 01:37:58;;;;;;;7.22;3.03;;;;;;;9.69;100.00;99531.13;6099124;23;20029;-61
2022/05/26 01:40:55;;;;;;;5.85;3.28;;;;;;;9.78;100.00;99524.78;6071288;23;20037;-60
2022/05/26 01:43:54;;;;;;;9.50;3.72;;;;;;;10.05;100.00;99521.53;6061941;23;20425;-61
2022/05/26 01:46:43;;;;;;;7.07;3.30;;;;;;;10.02;100.00;99522.50;6051090;23;20045;-61
2022/05/26 01:49:46;;;;;;;8.77;3.17;;;;;;;10.11;100.00;99518.78;6071263;23;20029;-67
2022/05/26 01:53:02;;;;;;;11.63;3.42;;;;;;;10.18;100.00;99523.94;6061881;23;20102;-62
2022/05/26 01:56:09;;;;;;;6.95;3.40;;;;;;;10.28;100.00;99514.00;5985621;24;20031;-61
2022/05/26 01:59:04;;;;;;;6.45;3.38;;;;;;;10.26;100.00;99506.06;5976640;24;20498;-62
2022/05/26 02:01:58;;;;;;;7.55;3.17;;;;;;;10.35;100.00;99519.09;5937638;24;20031;-61
2022/05/26 02:04:49;;;;;;;9.38;3.67;;;;;;;10.34;100.00;99519.13;5983936;24;20117;-63
2022/05/26 02:07:48;;;;;;;6.97;3.70;;;;;;;10.24;100.00;99525.56;5986743;23;20106;-61
2022/05/26 02:10:57;;;;;;;7.78;3.67;;;;;;;10.08;100.00;99516.22;6014065;23;20190;-61
2022/05/26 02:13:54;;;;;;;11.50;3.72;;;;;;;10.20;100.00;99526.53;6004297;23;20392;-61
2022/05/26 02:16:49;;;;;;;11.45;3.85;;;;;;;10.31;100.00;99520.09;6011449;23;20061;-60
2022/05/26 02:19:50;;;;;;;10.35;3.42;;;;;;;10.26;100.00;99503.44;6059710;23;20492;-61
2022/05/26 02:22:49;;;;;;;9.95;3.78;;;;;;;10.28;100.00;99517.50;6076362;23;20033;-63
2022/05/26 02:25:34;;;;;;;6.18;4.00;;;;;;;10.12;100.00;99509.94;6058543;23;20033;-61
2022/05/26 02:28:19;;;;;;;8.23;3.95;;;;;;;9.90;100.00;99508.63;6067524;23;20030;-61
2022/05/26 02:31:04;;;;;;;9.93;3.92;;;;;;;9.94;100.00;99510.31;6058306;23;20033;-62
2022/05/26 02:33:52;;;;;;;10.98;4.35;;;;;;;9.95;100.00;99512.94;6218288;23;20031;-63
2022/05/26 02:36:38;;;;;;;8.15;4.13;;;;;;;10.01;100.00;99517.22;6216934;23;20458;-66
2022/05/26 02:39:24;;;;;;;12.60;4.38;;;;;;;9.80;100.00;99476.16;6219137;23;20120;-62
2022/05/26 02:42:10;;;;;;;8.13;4.50;;;;;;;10.11;100.00;99521.44;6208395;23;20071;-64
2022/05/26 02:44:56;;;;;;;9.82;4.50;;;;;;;10.16;100.00;99515.13;6208493;23;20036;-63
2022/05/26 02:48:07;;;;;;;16.45;4.22;;;;;;;10.33;100.00;99514.75;6206987;23;20066;-62
2022/05/26 02:50:56;;;;;;;9.95;4.40;;;;;;;10.34;100.00;99521.78;6174522;23;20028;-61
2022/05/26 02:53:51;;;;;;;6.18;3.67;;;;;;;10.34;100.00;99516.50;6217059;23;20489;-66
2022/05/26 02:56:54;;;;;;;;;;;;;;;10.40;100.00;99509.25;6236553;23;20076;-62
2022/05/26 02:59:47;;;;;;;15.05;4.40;;;;;;;10.34;100.00;99512.06;6241079;23;20356;-60
2022/05/26 03:02:40;;;;;;;10.32;4.38;;;;;;;10.30;100.00;99510.41;6218333;23;20205;-62
2022/05/26 03:05:56;;;;;;;10.50;4.28;;;;;;;10.51;100.00;99511.66;6250585;23;20073;-68
2022/05/26 03:08:41;;;;;;;;;;;;;;;10.70;100.00;99505.88;6239576;23;20031;-65
2022/05/26 03:11:29;;;;;;;9.40;4.00;;;;;;;10.83;100.00;99502.00;6207388;23;20400;-61
2022/05/26 03:14:18;;;;;;;13.10;4.40;;;;;;;11.01;100.00;99490.06;6216332;23;20035;-62
2022/05/26 03:17:03;;;;;;;10.70;4.10;;;;;;;10.98;100.00;99467.16;6241282;23;20441;-62
2022/05/26 03:19:48;;;;;;;9.30;4.03;;;;;;;11.19;100.00;99479.81;6218492;23;20358;-61
2022/05/26 03:22:33;;;;;;;13.52;4.40;;;;;;;11.09;100.00;99446.50;6227141;23;20374;-62
2022/05/26 03:25:18;;;;;;;8.70;4.70;;;;;;;11.19;100.00;99440.03;6240955;23;20031;-62
2022/05/26 03:28:02;;;;;;;13.10;4.82;;;;;;;11.37;100.00;99474.03;6238094;23;20050;-60
2022/05/26 03:30:46;;;;;;;7.20;4.10;;;;;;;11.45;100.00;99463.19;6240424;23;20538;-62
2022/05/26 03:40:45;;;;;;;11.18;4.63;;;;;;;11.50;100.00;99472.75;6249959;23;20078;-62
2022/05/26 03:42:43;;;;;;;7.47;4.43;;;;;;;11.10;100.00;99463.28;6240940;23;20061;-62
2022/05/26 03:45:28;;;;;;;15.90;5.00;;;;;;;11.13;100.00;99456.13;6250672;23;20031;-62
2022/05/26 03:48:12;;;;;;;9.73;4.07;;;;;;;11.28;100.00;99460.13;6238963;23;20094;-64
2022/05/26 03:50:57;;;;;;;7.30;4.15;;;;;;;11.50;100.00;99469.22;6250591;23;20073;-62
2022/05/26 03:53:41;;;;;;;11.75;4.53;;;;;;;11.67;100.00;99459.03;6238188;23;20054;-62
2022/05/26 03:56:25;;;;;;;12.00;4.67;;;;;;;11.52;100.00;99446.16;6217692;23;20524;-61
2022/05/26 03:59:10;;;;;;;15.15;5.10;;;;;;;11.56;100.00;99454.00;6249816;23;20670;-64
2022/05/26 04:01:54;;;;;;;8.15;4.32;;;;;;;11.63;100.00;99447.63;6251000;23;20078;-64
2022/05/26 04:04:39;;;;;;;8.98;4.40;;;;;;;11.77;100.00;99452.53;6240792;23;20027;-62
2022/05/26 04:07:23;;;;;;;9.50;5.18;;;;;;;11.93;100.00;99452.03;6239375;23;20066;-69
2022/05/26 04:10:11;;;;;;;10.18;4.53;;;;;;;12.11;100.00;99446.13;6240078;23;20046;-63
2022/05/26 04:12:56;;;;;;;8.50;3.92;;;;;;;12.27;100.00;99449.19;6246593;23;20405;-63
2022/05/26 04:15:40;;;;;;;9.55;4.38;;;;;;;12.24;100.00;99415.59;6239118;23;20027;-60
2022/05/26 04:18:25;;;;;;;7.43;3.55;;;;;;;12.47;100.00;99439.63;6174187;23;20524;-62
2022/05/26 04:21:11;;;;;;;7.85;4.15;;;;;;;12.43;100.00;99421.19;6250336;23;20031;-62
2022/05/26 04:23:56;;;;;;;10.18;3.88;;;;;;;12.59;100.00;99417.09;6227259;23;20070;-62
2022/05/26 04:26:40;;;;;;;6.75;3.70;;;;;;;12.65;100.00;99404.47;6249435;23;20107;-65
2022/05/26 04:29:25;;;;;;;9.50;3.90;;;;;;;12.90;100.00;99433.75;6238522;23;20066;-63
2022/05/26 04:32:10;;;;;;;7.07;3.65;;;;;;;12.82;100.00;99404.72;6235758;23;20057;-64
2022/05/26 04:34:55;;;;;;;11.73;3.97;;;;;;;13.04;100.00;99421.75;6203337;23;20023;-63
2022/05/26 04:37:39;;;;;;;7.60;4.00;;;;;;;12.96;100.00;99404.25;6246184;23;20771;-63
2022/05/26 04:40:24;;;;;;;6.90;4.18;;;;;;;13.13;100.00;99432.06;6224489;23;20077;-62
2022/05/26 04:43:08;;;;;;;9.48;4.57;;;;;;;13.19;100.00;99421.19;6237464;23;20350;-61
2022/05/26 04:45:53;;;;;;;8.15;4.00;;;;;;;13.14;100.00;99408.97;6248486;23;20415;-68
2022/05/26 04:48:37;;;;;;;8.63;4.78;;;;;;;13.15;100.00;99406.25;6250413;23;20042;-63
2022/05/26 04:51:22;;;;;;;9.82;5.43;;;;;;;13.18;100.00;99410.59;6237477;23;20027;-62
2022/05/26 04:54:08;;;;;;;13.15;5.32;;;;;;;13.04;100.00;99399.56;6174671;23;20050;-61
2022/05/26 04:57:00;;;;;;;14.70;4.93;;;;;;;13.12;100.00;99397.50;6194543;23;20031;-62
2022/05/26 04:59:44;;;;;;;11.00;4.80;;;;;;;12.82;100.00;99369.31;6209431;23;20044;-62
2022/05/26 05:02:30;;;;;;;13.48;5.45;;;;;;;13.02;100.00;99402.28;6186853;23;20093;-63
2022/05/26 05:05:14;;;;;;;9.10;4.97;;;;;;;13.06;100.00;99401.25;6216897;23;20035;-64
2022/05/26 05:07:59;;;;;;;11.85;4.65;;;;;;;12.89;100.00;99373.47;6209443;23;20092;-64
2022/05/26 05:10:43;;;;;;;13.73;4.97;;;;;;;13.11;100.00;99388.66;6206947;23;20116;-61
2022/05/26 05:13:29;;;;;;;8.20;4.78;;;;;;;13.14;100.00;99393.00;6219378;23;20067;-62
2022/05/26 05:16:22;;;;;;;10.70;4.63;;;;;;;13.21;100.00;99402.47;6165801;23;20439;-61
2022/05/26 05:19:13;;;;;;;13.85;4.68;;;;;;;13.20;100.00;99398.97;6194567;23;20362;-68
2022/05/26 05:22:20;;;;;;;15.05;4.75;;;;;;;13.32;100.00;99395.84;6209304;23;20458;-62
2022/05/26 05:25:14;;;;;;;8.98;4.35;;;;;;;13.35;100.00;99397.53;6208522;23;20497;-62
2022/05/26 05:28:07;;;;;;;12.20;4.40;;;;;;;13.37;100.00;99393.88;6144656;23;20254;-61
2022/05/26 05:30:57;;;;;;;10.55;5.10;;;;;;;13.26;100.00;99379.25;6195047;23;20348;-63
2022/05/26 05:33:51;;;;;;;9.98;4.43;;;;;;;13.32;100.00;99381.66;6196252;23;20067;-63
2022/05/26 05:36:37;;;;;;;8.68;3.88;;;;;;;13.18;100.00;99362.69;6196293;23;20478;-61
2022/05/26 05:39:24;;;;;;;8.02;4.18;;;;;;;13.33;100.00;99394.91;6174027;23;20051;-69
2022/05/26 05:42:09;;;;;;;8.07;4.38;;;;;;;13.33;100.00;99386.06;6144660;23;20027;-65
2022/05/26 05:44:54;;;;;;;10.65;4.50;;;;;;;13.28;100.00;99374.72;6206404;23;20024;-62
2022/05/26 05:47:39;;;;;;;10.20;4.40;;;;;;;13.46;100.00;99390.00;6165365;23;20079;-62
2022/05/26 05:50:23;;;;;;;10.30;3.95;;;;;;;13.39;100.00;99383.19;6218233;23;20309;-60
2022/05/26 05:53:09;;;;;;;6.68;3.60;;;;;;;13.27;100.00;99392.50;6195748;23;20466;-63
2022/05/26 05:55:53;;;;;;;9.23;4.05;;;;;;;13.02;100.00;99348.19;6204113;23;20027;-63
2022/05/26 05:58:37;;;;;;;12.00;4.05;;;;;;;13.18;100.00;99355.53;6248471;23;20154;-75
2022/05/26 06:01:22;;;;;;;8.48;4.30;;;;;;;13.43;100.00;99385.69;6249123;23;20477;-63
2022/05/26 06:04:06;;;;;;;8.68;3.58;;;;;;;13.41;100.00;99378.66;6224213;23;20053;-64
2022/05/26 06:06:51;;;;;;;6.85;3.47;;;;;;;13.26;100.00;99374.75;6215988;23;20031;-66
2022/05/26 06:09:36;;;;;;;8.68;3.45;;;;;;;13.31;100.00;99377.28;6249985;23;20081;-63
2022/05/26 06:12:20;;;;;;;10.02;3.38;;;;;;;13.26;100.00;99361.44;6218268;23;20027;-63
2022/05/26 06:15:06;;;;;;;8.02;3.88;;;;;;;13.27;100.00;99371.19;6217971;23;20067;-62
2022/05/26 06:17:51;;;;;;;5.78;3.67;;;;;;;13.31;100.00;99362.16;6240958;23;20034;-69
2022/05/26 06:20:35;;;;;;;6.15;3.70;;;;;;;13.50;100.00;99360.53;6240982;23;20372;-63
2022/05/26 06:23:20;;;;;;;7.68;3.50;;;;;;;13.42;100.00;99330.66;6248556;23;20066;-63
2022/05/26 06:26:04;;;;;;;10.57;3.97;;;;;;;13.48;100.00;99354.41;6240966;23;20067;-61
2022/05/26 06:37:58;;;;;;;11.02;4.68;;;;;;;13.52;100.00;99372.00;6240826;23;20028;-62
2022/05/26 06:40:43;;;;;;;7.53;5.40;;;;;;;13.53;100.00;99351.56;6218047;23;20128;-65
2022/05/26 06:43:28;;;;;;;12.93;5.32;;;;;;;13.75;100.00;99353.34;6240413;23;20105;-62
2022/05/26 06:46:12;;;;;;;10.52;5.72;;;;;;;13.97;100.00;99364.03;6250840;23;20081;-61
2022/05/26 06:48:57;;;;;;;14.05;5.25;;;;;;;14.10;100.00;99357.25;6248620;23;20077;-66
2022/05/26 06:51:43;;;;;;;11.65;4.97;;;;;;;14.27;100.00;99361.94;6240930;23;20139;-62
2022/05/26 06:54:31;;;;;;;10.68;4.70;;;;;;;14.13;100.00;99361.59;6225656;23;20501;-63
2022/05/26 06:57:16;;;;;;;12.55;4.68;;;;;;;14.21;100.00;99359.47;6240534;23;20031;-62
2022/05/26 07:00:00;;;;;;;9.45;4.78;;;;;;;14.44;100.00;99356.75;6251010;23;20027;-63
2022/05/26 07:02:45;;;;;;;8.23;3.83;;;;;;;14.55;100.00;99346.50;6250754;23;20477;-67
2022/05/26 07:05:33;;;;;;;12.43;4.47;;;;;;;14.79;100.00;99340.97;6251330;23;20107;-62
2022/05/26 07:08:19;;;;;;;8.40;3.95;;;;;;;14.75;100.00;99317.16;6226113;23;20034;-63
2022/05/26 07:11:03;;;;;;;5.75;3.90;;;;;;;15.20;100.00;99334.66;6218099;23;20028;-63
2022/05/26 07:13:48;;;;;;;8.48;3.88;;;;;;;15.81;100.00;99330.88;6250615;23;20078;-62
2022/05/26 07:16:32;;;;;;;11.75;4.53;;;;;;;16.46;100.00;99323.19;6250609;23;20030;-63
2022/05/26 07:19:18;;;;;;;8.25;4.10;;;;;;;17.12;100.00;99329.50;6240015;23;20031;-61
2022/05/26 07:22:03;;;;;;;10.93;5.25;;;;;;;16.99;100.00;99329.31;6226564;23;20100;-71
2022/05/26 07:24:49;;;;;;;7.88;4.20;;;;;;;17.37;100.00;99327.28;6250767;23;20497;-64
2022/05/26 07:27:34;;;;;;;12.10;4.47;;;;;;;17.58;100.00;99315.41;6225727;23;20203;-63
2022/05/26 07:30:18;;;;;;;12.75;4.90;;;;;;;18.20;100.00;99315.41;6240830;23;20058;-63
2022/05/26 07:33:03;;;;;;;9.27;4.10;;;;;;;18.42;100.00;99315.00;6250392;23;20035;-62
2022/05/26 07:35:47;;;;;;;15.90;4.03;;;;;;;18.76;100.00;99298.63;6250700;23;20047;-61
2022/05/26 07:41:35;;;;;;;7.82;3.72;;;;;;;19.19;100.00;99308.50;6249896;23;20181;-63
2022/05/26 07:44:19;;;;;;;10.43;3.47;;;;;;;19.76;100.00;99294.94;6240275;23;20031;-62
2022/05/26 07:47:05;;;;;;;6.10;3.05;;;;;;;20.71;100.00;99296.63;6240282;23;20027;-62
2022/05/26 07:49:50;;;;;;;8.77;3.53;;;;;;;21.31;98.13;99297.78;6174253;23;20035;-67
2022/05/26 07:52:34;;;;;;;9.00;3.90;;;;;;;21.86;93.16;99296.44;6206047;23;20078;-62
2022/05/26 07:55:20;;;;;;;8.25;3.30;;;;;;;22.79;88.16;99284.88;6237781;23;20086;-63
2022/05/26 07:58:04;;;;;;;8.50;2.70;;;;;;;23.65;79.21;99287.00;6240193;23;20030;-63
2022/05/26 08:00:49;;;;;;;5.53;3.15;;;;;;;23.83;74.89;99258.41;6250511;23;20098;-62
2022/05/26 08:03:34;;;;;;;8.27;2.88;;;;;;;24.47;74.09;99279.19;6196391;23;20107;-64
2022/05/26 08:06:20;;;;;;;7.00;2.40;;;;;;;25.16;69.09;99282.19;6228997;23;20026;-63
2022/05/26 08:09:04;;;;;;;8.15;2.63;;;;;;;25.45;65.98;99282.41;6249497;23;20027;-73
2022/05/26 08:11:49;;;;;;;5.00;2.17;;;;;;;26.41;60.20;99270.00;6236321;23;20089;-61
2022/05/26 08:14:34;;;;;;;6.32;2.50;;;;;;;26.10;59.75;99268.38;6220718;23;20030;-63
2022/05/26 08:17:23;;;;;;;5.05;2.35;;;;;;;27.06;54.49;99265.56;6238457;23;20121;-63
2022/05/26 08:20:08;;;;;;;4.38;2.03;;;;;;;27.66;52.77;99258.81;6247900;23;20026;-63
2022/05/26 08:22:52;;;;;;;6.18;2.33;;;;;;;29.00;45.63;99260.50;6238448;23;20127;-64
2022/05/26 08:25:37;;;;;;;6.72;2.55;;;;;;;29.19;45.07;99270.41;6238238;23;20073;-62
2022/05/26 08:28:23;;;;;;;4.95;2.30;;;;;;;28.30;45.43;99268.66;6213240;23;20054;-70
2022/05/26 08:31:10;;;;;;;5.35;2.30;;;;;;;27.72;49.74;99266.38;6238405;23;20070;-62
2022/05/26 08:33:54;;;;;;;3.10;2.25;;;;;;;28.00;48.36;99238.16;6246300;23;20034;-62
2022/05/26 08:36:39;;;;;;;3.30;2.40;;;;;;;27.05;50.94;99261.09;6247825;23;20098;-64
2022/05/26 08:39:24;;;;;;;6.03;2.55;;;;;;;27.13;51.54;99257.66;6194010;23;20414;-62
2022/05/26 08:42:29;;;;;;;4.20;2.13;;;;;;;27.32;54.10;99254.91;6238254;23;20514;-63
2022/05/26 08:45:13;;;;;;;5.28;2.63;;;;;;;29.05;47.90;99252.72;6247633;23;20031;-63
2022/05/26 08:47:58;;;;;;;7.43;3.05;;;;;;;29.36;44.68;99250.38;6237763;23;20550;-62
2022/05/26 08:50:42;;;;;;;6.80;3.20;;;;;;;30.50;40.29;99242.50;6248065;23;20027;-61
2022/05/26 08:53:33;;;;;;;6.10;3.05;;;;;;;32.16;37.22;99247.91;6195192;23;20043;-61
2022/05/26 08:56:23;;;;;;;3.28;2.13;;;;;;;32.30;33.40;99227.13;6247711;23;20073;-63
2022/05/26 08:59:13;;;;;;;5.35;2.17;;;;;;;33.20;34.11;99232.63;6216515;23;20487;-66
2022/05/26 09:02:00;;;;;;;20.45;2.95;;;;;;;32.47;32.11;99245.22;6226205;23;20078;-63
2022/05/26 09:04:45;;;;;;;5.85;2.15;;;;;;;30.64;35.98;99223.50;6214382;23;20119;-67
2022/05/26 09:13:44;;;;;;;5.22;1.90;;;;;;;29.89;36.52;99220.09;6237364;23;20023;-63
2022/05/26 09:16:32;;;;;;;5.10;1.95;;;;;;;30.70;36.94;99222.00;6235567;23;20023;-70
2022/05/26 09:19:20;;;;;;;5.80;2.20;;;;;;;32.42;33.04;99223.78;6246262;23;20027;-62
2022/05/26 09:22:25;;;;;;;8.95;1.95;;;;;;;33.90;31.68;99222.09;6170581;23;20074;-63
2022/05/26 09:25:13;;;;;;;2.97;1.95;;;;;;;35.14;28.17;99218.84;6189702;23;20379;-63
2022/05/26 09:27:58;;;;;;;7.68;2.40;;;;;;;35.57;24.90;99213.06;6236183;23;20031;-63
2022/05/26 09:30:42;;;;;;;6.65;1.90;;;;;;;35.14;23.91;99183.00;6236385;23;20031;-63
2022/05/26 09:33:30;;;;;;;4.05;1.52;;;;;;;34.17;22.47;99210.38;6191642;23;20103;-63
2022/05/26 09:36:31;;;;;;;3.90;1.70;;;;;;;33.20;24.99;99192.25;6171189;23;20095;-63
2022/05/26 09:39:24;;;;;;;4.30;1.52;;;;;;;31.65;27.25;99179.91;6245677;23;20035;-65
2022/05/26 09:42:20;;;;;;;6.40;1.60;;;;;;;30.21;29.62;99179.19;6245678;23;20496;-69
2022/05/26 09:45:12;;;;;;;2.95;1.50;;;;;;;30.90;28.06;99185.03;6250663;23;20077;-63
2022/05/26 09:48:00;;;;;;;5.53;1.60;;;;;;;30.79;27.08;99186.25;6217998;23;20085;-65
2022/05/26 09:50:52;;;;;;;4.57;1.55;;;;;;;32.01;25.62;99178.41;6237462;23;20130;-62
2022/05/26 09:53:45;;;;;;;6.50;1.55;;;;;;;32.66;25.55;99179.66;6214960;23;20042;-67
2022/05/26 09:56:42;;;;;;;5.15;1.58;;;;;;;34.50;24.09;99182.19;6249911;23;20092;-63
2022/05/26 09:59:33;;;;;;;4.13;1.70;;;;;;;34.16;22.24;99165.47;6214469;23;20035;-62
2022/05/26 10:02:27;;;;;;;4.35;1.92;;;;;;;33.73;23.31;99169.13;6249142;23;20402;-66
2022/05/26 10:05:25;;;;;;;3.83;1.70;;;;;;;33.78;23.82;99161.19;6249385;23;20532;-61
2022/05/26 10:08:56;;;;;;;2.60;1.60;;;;;;;32.72;25.90;99161.59;6248992;23;20074;-63
2022/05/26 10:12:28;;;;;;;3.53;1.70;;;;;;;35.40;24.20;99152.88;6116694;23;20162;-62
2022/05/26 10:15:23;;;;;;;3.58;1.83;;;;;;;35.44;22.11;99143.97;6057426;23;20480;-66
2022/05/26 10:18:08;;;;;;;2.63;2.00;;;;;;;33.50;23.29;99137.31;6038472;23;20095;-63
2022/05/26 10:21:02;;;;;;;5.38;2.00;;;;;;;33.06;24.27;99110.63;6058342;23;20174;-64
2022/05/26 10:23:55;;;;;;;2.42;1.48;;;;;;;34.27;23.48;99131.91;6067690;23;20098;-68
2022/05/26 10:27:13;;;;;;;5.65;1.60;;;;;;;33.71;26.12;99118.97;6018578;23;20085;-62
2022/05/26 10:30:42;;;;;;;6.05;1.65;;;;;;;32.08;27.42;99129.13;6058429;23;20071;-62
2022/05/26 10:33:55;;;;;;;4.03;1.90;;;;;;;31.68;26.46;99116.47;6036988;23;20066;-69
2022/05/26 10:36:57;;;;;;;3.78;1.83;;;;;;;32.80;24.74;99115.69;6066360;23;20492;-71
2022/05/26 10:39:44;;;;;;;15.13;1.80;;;;;;;32.13;23.99;99122.06;6067905;23;20061;-63
2022/05/26 10:42:37;;;;;;;8.25;1.88;;;;;;;30.73;27.62;99106.69;6038631;23;20190;-63
2022/05/26 10:45:40;;;;;;;4.65;2.08;;;;;;;29.12;30.39;99102.72;6065980;23;20390;-63
2022/05/26 10:48:43;;;;;;;4.95;1.60;;;;;;;28.08;32.03;99085.56;6099656;23;20032;-72
2022/05/26 10:51:44;;;;;;;4.13;1.80;;;;;;;29.60;31.21;99092.03;6235207;23;20069;-64
2022/05/26 10:54:41;;;;;;;4.22;1.90;;;;;;;30.91;29.06;99099.97;6225345;23;20424;-63
2022/05/26 10:57:57;;;;;;;5.93;1.70;;;;;;;28.64;32.75;99103.25;6215839;23;20026;-66
2022/05/26 11:00:42;;;;;;;11.98;1.75;;;;;;;27.17;35.64;99082.13;6226068;23;20034;-62
2022/05/26 11:03:45;;;;;;;3.90;1.70;;;;;;;26.92;35.46;99080.06;6247858;23;20026;-63
2022/05/26 11:06:34;;;;;;;3.50;1.70;;;;;;;25.85;38.72;99069.53;6227737;23;20070;-63
2022/05/26 11:09:42;;;;;;;4.45;1.50;;;;;;;25.17;41.55;99065.97;6250338;23;20355;-63
2022/05/26 11:12:33;;;;;;;2.90;1.60;;;;;;;24.35;43.97;99047.16;6214329;23;20088;-62
2022/05/26 11:18:53;;;;;;;5.32;1.67;;;;;;;24.00;46.55;99055.63;6248965;23;20370;-63
2022/05/26 11:21:37;;;;;;;4.78;1.60;;;;;;;24.26;46.08;99037.13;6192366;23;20481;-63
2022/05/26 11:24:23;;;;;;;6.60;1.95;;;;;;;24.80;45.40;99035.84;6238307;23;20163;-61
2022/05/26 11:27:11;;;;;;;4.18;1.70;;;;;;;24.78;44.99;99040.56;6246775;23;20027;-64
2022/05/26 11:30:00;;;;;;;9.57;1.70;;;;;;;23.70;48.69;99004.03;6216179;23;20031;-62
2022/05/26 11:36:07;;;;;;;7.70;1.88;;;;;;;23.57;49.86;99033.16;6248575;23;20066;-64
2022/05/26 11:38:52;;;;;;;4.45;2.10;;;;;;;23.57;51.93;99024.19;6246629;23;20450;-63
2022/05/26 11:41:49;;;;;;;;;;;;;;;23.57;50.85;99021.50;6249285;23;20031;-64
2022/05/26 11:44:36;;;;;;;3.60;1.75;;;;;;;23.47;52.54;99017.81;6248803;23;19956;-63
2022/05/26 11:47:48;;;;;;;5.35;1.92;;;;;;;23.13;51.97;98995.41;6223055;23;20335;-64
2022/05/26 11:50:54;;;;;;;4.65;1.90;;;;;;;23.16;53.01;98987.03;6236105;23;20031;-64
2022/05/26 11:53:43;;;;;;;9.50;1.88;;;;;;;23.02;54.19;99011.66;6224121;23;20035;-70
2022/05/26 11:56:28;;;;;;;6.35;1.70;;;;;;;22.79;55.73;98982.09;6238704;23;20051;-64
2022/05/26 11:59:41;;;;;;;6.07;2.10;;;;;;;22.75;58.55;99000.41;6172290;23;20027;-64
2022/05/26 12:02:31;;;;;;;4.68;1.85;;;;;;;22.29;59.04;99004.19;6214787;23;20051;-65
2022/05/26 12:05:31;;;;;;;6.22;1.77;;;;;;;22.28;55.13;98999.78;6225624;23;20027;-63
2022/05/26 12:08:38;;;;;;;3.92;1.70;;;;;;;21.95;56.53;98992.47;6215182;23;20476;-64
2022/05/26 12:11:56;;;;;;;8.40;1.65;;;;;;;22.34;56.81;98991.19;6248462;23;20480;-63
2022/05/26 12:15:03;;;;;;;13.07;2.75;;;;;;;23.04;56.25;98984.47;6215921;23;20476;-63
2022/05/26 12:17:53;;;;;;;5.25;1.85;;;;;;;23.58;52.91;98975.31;6249177;23;20098;-63
2022/05/26 12:20:42;;;;;;;2.78;1.52;;;;;;;23.43;52.33;98975.78;6224475;23;20115;-63
2022/05/26 12:23:27;;;;;;;4.30;1.83;;;;;;;23.54;52.82;98970.31;6224871;23;20027;-62
2022/05/26 12:26:44;;;;;;;4.88;2.13;;;;;;;23.86;51.61;98966.56;6193175;23;20082;-63
2022/05/26 12:30:01;;;;;;;4.00;1.73;;;;;;;23.59;50.39;98962.66;6237706;23;20112;-63
2022/05/26 12:32:52;;;;;;;4.10;1.38;;;;;;;23.34;52.41;98947.63;6237536;23;20059;-64
2022/05/26 12:36:00;;;;;;;3.80;1.65;;;;;;;23.41;52.66;98945.28;6247606;23;20371;-61
2022/05/26 12:39:22;;;;;;;4.88;1.70;;;;;;;23.45;53.81;98938.63;6102229;23;20085;-63
2022/05/26 12:42:23;;;;;;;3.22;1.70;;;;;;;23.29;54.21;98921.97;6105510;23;20555;-62
2022/05/26 12:45:34;;;;;;;4.20;1.80;;;;;;;23.58;54.31;98914.94;6114649;23;20130;-63
2022/05/26 12:48:34;;;;;;;4.03;2.75;;;;;;;23.20;55.45;98888.44;6115288;23;20500;-62
2022/05/26 12:51:18;;;;;;;6.57;4.32;;;;;;;23.20;56.61;98874.00;6126193;23;20050;-72
2022/05/26 12:54:08;;;;;;;4.72;2.65;;;;;;;23.42;56.70;98903.69;6116820;23;20444;-61
2022/05/26 12:56:57;;;;;;;3.72;1.88;;;;;;;23.42;56.94;98899.13;6114623;23;20499;-61
2022/05/26 12:59:42;;;;;;;3.67;2.20;;;;;;;23.27;56.84;98886.06;6126637;23;20113;-63
2022/05/26 13:02:30;;;;;;;5.25;1.80;;;;;;;23.14;57.82;98866.44;6126646;23;20128;-64
2022/05/26 13:05:18;;;;;;;2.80;1.70;;;;;;;23.08;58.03;98870.53;6095006;23;20065;-68
2022/05/26 13:08:04;;;;;;;5.80;2.00;;;;;;;22.82;59.71;98858.31;6106346;23;20048;-61
2022/05/26 13:10:52;;;;;;;6.25;2.08;;;;;;;22.83;60.08;98854.66;6115214;23;20547;-61
2022/05/26 13:13:56;;;;;;;2.60;1.77;;;;;;;22.74;61.57;98847.28;6096920;23;20032;-62
2022/05/26 13:16:41;;;;;;;6.82;1.92;;;;;;;22.44;62.77;98812.00;6250810;23;20081;-62
2022/05/26 13:19:26;;;;;;;4.93;1.90;;;;;;;22.54;62.47;98837.28;6215708;23;20481;-61
2022/05/26 13:22:14;;;;;;;7.63;3.22;;;;;;;22.42;63.95;98837.44;6249885;23;20062;-62
2022/05/26 13:25:00;;;;;;;4.57;2.80;;;;;;;22.02;65.12;98802.03;6195164;23;20039;-62
2022/05/26 13:27:49;;;;;;;8.75;3.80;;;;;;;22.25;66.01;98840.66;6247629;23;20119;-70
2022/05/26 13:33:49;;;;;;;11.70;6.30;;;;;;;21.99;66.33;98818.47;6249428;23;20357;-62
2022/05/26 13:36:54;;;;;;;16.73;6.10;;;;;;;22.04;67.14;98827.91;6237994;23;20075;-61
2022/05/26 13:39:38;;;;;;;10.85;5.10;;;;;;;21.83;68.13;98818.00;6236859;23;20043;-62
2022/05/26 13:42:22;;;;;;;15.57;4.95;;;;;;;21.77;69.55;98813.09;6239221;23;20070;-62
2022/05/26 13:45:25;;;;;;;8.00;2.53;;;;;;;21.78;69.92;98818.38;6238344;23;20072;-61
2022/05/26 13:48:30;;;;;;;4.38;1.90;;;;;;;21.74;70.36;98814.22;6192957;23;20031;-62
2022/05/26 13:51:20;;;;;;;5.00;1.90;;;;;;;21.63;71.29;98811.47;6214325;23;20031;-66
2022/05/26 13:54:16;;;;;;;12.35;2.30;;;;;;;21.50;71.98;98812.56;6249395;23;20078;-61
2022/05/26 13:57:09;;;;;;;3.25;1.85;;;;;;;21.46;72.69;98811.97;6208460;23;20032;-62